Time;durP1;ratioP1;P1;durP2;ratioP2;P2;SDS_P1;SDS_P2;PMS_P1;PMS_P2;Temp;Humidity;BMP_temperature;BMP_pressure;BME280_temperature;BME280_humidity;BME280_pressure;Samples;Min_cycle;Max_cycle;Signal;HPM_P1;HPM_P2
2022/08/28 00:02:21;;;;;;;0.50;0.50;;;12.60;99.90;;;;;;5050136;28;20040;-80
2022/08/28 00:04:47;;;;;;;0.50;0.50;;;12.60;99.90;;;;;;5057484;28;20534;-80
2022/08/28 00:07:13;;;;;;;0.40;0.40;;;12.60;99.90;;;;;;5058575;28;20044;-80
2022/08/28 00:09:39;;;;;;;0.40;0.40;;;12.60;99.90;;;;;;5063655;28;20066;-80
2022/08/28 00:12:05;;;;;;;0.40;0.40;;;12.60;99.90;;;;;;5042252;28;20127;-81
2022/08/28 00:14:31;;;;;;;0.50;0.50;;;12.60;99.90;;;;;;5061958;28;20035;-80
2022/08/28 00:16:57;;;;;;;0.40;0.40;;;12.60;99.90;;;;;;5066232;28;20120;-80
2022/08/28 00:19:23;;;;;;;0.50;0.50;;;12.50;99.90;;;;;;5045571;28;20081;-80
2022/08/28 00:21:50;;;;;;;0.43;0.43;;;12.50;99.90;;;;;;5061060;28;20044;-81
2022/08/28 00:24:17;;;;;;;0.40;0.40;;;12.40;99.90;;;;;;5050325;28;22661;-80
2022/08/28 00:29:28;;;;;;;0.40;0.40;;;12.30;99.90;;;;;;5050887;28;20501;-80
2022/08/28 00:31:55;;;;;;;0.50;0.50;;;12.20;99.90;;;;;;5053166;28;20055;-81
2022/08/28 00:34:21;;;;;;;0.50;0.50;;;12.10;99.90;;;;;;5031974;28;20052;-80
2022/08/28 00:36:47;;;;;;;0.40;0.40;;;12.10;99.90;;;;;;5056055;28;20300;-80
2022/08/28 00:39:13;;;;;;;0.40;0.40;;;12.00;99.90;;;;;;5062234;28;20045;-80
2022/08/28 00:41:40;;;;;;;0.40;0.40;;;12.00;99.90;;;;;;5060021;28;20087;-80
2022/08/28 00:44:08;;;;;;;0.50;0.50;;;11.90;99.90;;;;;;5037881;28;20205;-80
2022/08/28 00:46:35;;;;;;;0.40;0.40;;;11.90;99.90;;;;;;5079641;28;20135;-81
2022/08/28 00:49:00;;;;;;;0.40;0.40;;;11.80;99.90;;;;;;5068661;28;21295;-81
2022/08/28 00:54:11;;;;;;;0.40;0.40;;;11.70;99.90;;;;;;5066349;28;20048;-80
2022/08/28 00:56:39;;;;;;;0.50;0.50;;;11.60;99.90;;;;;;5031061;28;20059;-80
2022/08/28 00:59:11;;;;;;;0.50;0.50;;;11.60;99.90;;;;;;5063565;28;20051;-79
2022/08/28 01:01:37;;;;;;;0.40;0.40;;;11.50;99.90;;;;;;5036201;28;20117;-81
2022/08/28 01:04:05;;;;;;;0.40;0.40;;;11.50;99.90;;;;;;5049310;28;20052;-80
2022/08/28 01:06:32;;;;;;;0.50;0.50;;;11.50;99.90;;;;;;5067409;28;20997;-80
2022/08/28 01:08:58;;;;;;;0.50;0.50;;;11.40;99.90;;;;;;5065922;28;20043;-80
2022/08/28 01:11:24;;;;;;;0.45;0.45;;;11.30;99.90;;;;;;5079344;28;20455;-80
2022/08/28 01:13:53;;;;;;;0.40;0.40;;;11.30;99.90;;;;;;5083189;28;20048;-80
2022/08/28 01:16:21;;;;;;;0.50;0.50;;;11.20;99.90;;;;;;5080660;28;20044;-80
2022/08/28 01:18:48;;;;;;;0.50;0.50;;;11.20;99.90;;;;;;5080207;28;20056;-80
2022/08/28 01:21:28;;;;;;;0.40;0.40;;;11.10;99.90;;;;;;5062892;28;20052;-80
2022/08/28 01:24:05;;;;;;;0.47;0.47;;;11.10;99.90;;;;;;5080606;28;20046;-80
2022/08/28 01:26:30;;;;;;;0.50;0.50;;;11.10;99.90;;;;;;5080194;28;20048;-81
2022/08/28 01:28:58;;;;;;;0.50;0.50;;;11.10;99.90;;;;;;5064124;28;20062;-80
2022/08/28 01:31:27;;;;;;;0.40;0.40;;;11.10;99.90;;;;;;5063081;28;20055;-81
2022/08/28 01:33:53;;;;;;;0.50;0.50;;;11.10;99.90;;;;;;5063704;28;20060;-81
2022/08/28 01:36:19;;;;;;;0.50;0.50;;;11.20;99.90;;;;;;5064046;28;20040;-80
2022/08/28 01:38:48;;;;;;;0.40;0.40;;;11.20;99.90;;;;;;5065081;28;20083;-81
2022/08/28 01:41:15;;;;;;;0.50;0.50;;;11.20;99.90;;;;;;5061674;28;20054;-80
2022/08/28 01:43:41;;;;;;;0.40;0.40;;;11.20;99.90;;;;;;5060364;28;20083;-80
2022/08/28 01:46:08;;;;;;;0.40;0.40;;;11.20;99.90;;;;;;5052580;28;20162;-81
2022/08/28 01:48:38;;;;;;;0.40;0.40;;;11.20;99.90;;;;;;5060411;28;20055;-80
2022/08/28 01:51:04;;;;;;;0.40;0.40;;;11.20;99.90;;;;;;5079558;28;21572;-80
2022/08/28 01:53:31;;;;;;;0.40;0.40;;;11.20;99.90;;;;;;5059813;28;20526;-80
2022/08/28 01:55:59;;;;;;;0.40;0.40;;;11.20;99.90;;;;;;5063777;28;20040;-81
2022/08/28 01:58:25;;;;;;;0.40;0.40;;;11.30;99.90;;;;;;5072800;28;20075;-80
2022/08/28 02:00:52;;;;;;;0.50;0.50;;;11.20;99.90;;;;;;5067674;28;20050;-80
2022/08/28 02:03:19;;;;;;;0.50;0.50;;;11.10;99.90;;;;;;5063402;28;20046;-80
2022/08/28 02:05:45;;;;;;;0.50;0.50;;;11.00;99.90;;;;;;5052183;28;20079;-80
2022/08/28 02:08:12;;;;;;;0.50;0.50;;;11.00;99.90;;;;;;5052493;28;20051;-80
2022/08/28 02:10:39;;;;;;;0.50;0.50;;;11.00;99.90;;;;;;5037719;28;20844;-80
2022/08/28 02:13:06;;;;;;;0.40;0.40;;;11.00;99.90;;;;;;5058820;28;20082;-81
2022/08/28 02:15:35;;;;;;;2.20;1.10;;;11.10;99.90;;;;;;5079698;28;20115;-80
2022/08/28 02:18:01;;;;;;;0.50;0.50;;;11.00;99.90;;;;;;5072129;28;20046;-80
2022/08/28 02:20:28;;;;;;;0.40;0.40;;;11.00;99.90;;;;;;5062730;28;20043;-81
2022/08/28 02:22:56;;;;;;;0.40;0.40;;;11.10;99.90;;;;;;5046064;28;20707;-80
2022/08/28 02:25:22;;;;;;;0.50;0.50;;;11.00;99.90;;;;;;5060630;28;20055;-80
2022/08/28 02:27:48;;;;;;;0.40;0.40;;;11.10;99.90;;;;;;5079571;28;20044;-80
2022/08/28 02:30:16;;;;;;;0.40;0.40;;;11.00;99.90;;;;;;5082449;28;20157;-80
2022/08/28 02:32:43;;;;;;;0.50;0.50;;;11.00;99.90;;;;;;5070099;28;20051;-80
2022/08/28 02:35:11;;;;;;;0.40;0.40;;;11.00;99.90;;;;;;5062005;28;20164;-80
2022/08/28 02:37:37;;;;;;;0.40;0.40;;;11.00;99.90;;;;;;5060265;28;20075;-80
2022/08/28 02:40:03;;;;;;;0.40;0.40;;;11.10;99.90;;;;;;5060541;28;20130;-80
2022/08/28 02:42:29;;;;;;;0.40;0.40;;;11.10;99.90;;;;;;5052325;28;20537;-80
2022/08/28 02:44:55;;;;;;;0.40;0.40;;;11.10;99.90;;;;;;5062070;28;20047;-80
2022/08/28 02:47:20;;;;;;;0.50;0.50;;;11.00;99.90;;;;;;5025821;28;20052;-80
2022/08/28 02:49:46;;;;;;;0.40;0.40;;;11.00;99.90;;;;;;5058933;28;20059;-80
2022/08/28 02:52:12;;;;;;;0.40;0.40;;;10.90;99.90;;;;;;5079382;28;20057;-80
2022/08/28 02:54:39;;;;;;;0.40;0.40;;;11.00;99.90;;;;;;5063370;28;20047;-80
2022/08/28 02:57:08;;;;;;;0.40;0.40;;;10.90;99.90;;;;;;5060236;28;20079;-80
2022/08/28 02:59:35;;;;;;;0.40;0.40;;;10.80;99.90;;;;;;5077535;28;20044;-80
2022/08/28 03:02:02;;;;;;;0.40;0.40;;;10.80;99.90;;;;;;5079747;28;20123;-80
2022/08/28 03:04:30;;;;;;;0.40;0.40;;;10.80;99.90;;;;;;5066674;28;20928;-80
2022/08/28 03:06:58;;;;;;;0.40;0.40;;;10.70;99.90;;;;;;5062187;28;20092;-81
2022/08/28 03:09:24;;;;;;;0.50;0.50;;;10.80;99.90;;;;;;5063436;28;20043;-80
2022/08/28 03:11:52;;;;;;;0.40;0.40;;;10.70;99.90;;;;;;5064424;28;20370;-80
2022/08/28 03:14:19;;;;;;;0.50;0.50;;;10.70;99.90;;;;;;5078574;28;20100;-80
2022/08/28 03:16:45;;;;;;;0.50;0.50;;;10.70;99.90;;;;;;5067683;28;20143;-80
2022/08/28 03:19:11;;;;;;;0.40;0.40;;;10.70;99.90;;;;;;5063057;28;20040;-80
2022/08/28 03:21:37;;;;;;;0.40;0.40;;;10.70;99.90;;;;;;5060137;28;20047;-80
2022/08/28 03:24:03;;;;;;;0.50;0.50;;;10.70;99.90;;;;;;5063410;28;20047;-80
2022/08/28 03:26:29;;;;;;;0.50;0.50;;;10.70;99.90;;;;;;5061547;28;20051;-80
2022/08/28 03:28:56;;;;;;;0.50;0.50;;;10.70;99.90;;;;;;5080217;28;20040;-80
2022/08/28 03:31:25;;;;;;;0.40;0.40;;;10.70;99.90;;;;;;5078554;28;20158;-81
2022/08/28 03:33:52;;;;;;;0.40;0.40;;;10.70;99.90;;;;;;5059822;28;20540;-80
2022/08/28 03:36:21;;;;;;;0.40;0.40;;;10.60;99.90;;;;;;5063218;28;20068;-80
2022/08/28 03:38:47;;;;;;;0.40;0.40;;;10.60;99.90;;;;;;5071696;28;20043;-79
2022/08/28 03:41:16;;;;;;;0.40;0.40;;;10.50;99.90;;;;;;5063062;28;20056;-79
2022/08/28 03:43:42;;;;;;;0.50;0.50;;;10.50;99.90;;;;;;5072239;28;20040;-80
2022/08/28 03:46:14;;;;;;;0.50;0.50;;;10.50;99.90;;;;;;5065659;28;20391;-80
2022/08/28 03:48:40;;;;;;;0.40;0.40;;;10.50;99.90;;;;;;5075844;28;20052;-80
2022/08/28 03:51:12;;;;;;;0.50;0.50;;;10.40;99.90;;;;;;5075965;28;20080;-80
2022/08/28 03:53:39;;;;;;;0.50;0.50;;;10.40;99.90;;;;;;5067132;28;20052;-80
2022/08/28 03:56:06;;;;;;;0.50;0.50;;;10.40;99.90;;;;;;5067921;28;20043;-80
2022/08/28 03:58:32;;;;;;;0.40;0.40;;;10.40;99.90;;;;;;5049144;28;20047;-81
2022/08/28 04:00:58;;;;;;;0.50;0.50;;;10.40;99.90;;;;;;5082663;28;20054;-80
2022/08/28 04:03:24;;;;;;;0.40;0.40;;;10.40;99.90;;;;;;5081756;28;20063;-79
2022/08/28 04:05:50;;;;;;;0.50;0.50;;;10.40;99.90;;;;;;5050815;28;20093;-80
2022/08/28 04:08:18;;;;;;;0.50;0.50;;;10.40;99.90;;;;;;5066032;28;20150;-80
2022/08/28 04:10:44;;;;;;;0.50;0.50;;;10.40;99.90;;;;;;5061321;28;20150;-80
2022/08/28 04:13:11;;;;;;;0.40;0.40;;;10.40;99.90;;;;;;5064015;28;20040;-80
2022/08/28 04:15:36;;;;;;;0.40;0.40;;;10.40;99.90;;;;;;5062536;28;20197;-80
2022/08/28 04:18:02;;;;;;;0.50;0.50;;;10.40;99.90;;;;;;5064169;28;20134;-80
2022/08/28 04:20:28;;;;;;;0.40;0.40;;;10.30;99.90;;;;;;5065349;28;20044;-80
2022/08/28 04:22:54;;;;;;;0.50;0.50;;;10.30;99.90;;;;;;5064551;28;20208;-80
2022/08/28 04:25:20;;;;;;;0.50;0.50;;;10.30;99.90;;;;;;5064967;28;20123;-80
2022/08/28 04:27:47;;;;;;;0.50;0.50;;;10.30;99.90;;;;;;5067619;28;20063;-80
2022/08/28 04:30:13;;;;;;;0.50;0.50;;;10.30;99.90;;;;;;5064937;28;20082;-81
2022/08/28 04:32:39;;;;;;;0.50;0.50;;;10.30;99.90;;;;;;5063929;28;20587;-80
2022/08/28 04:35:07;;;;;;;0.50;0.50;;;10.30;99.90;;;;;;5065258;28;20130;-80
2022/08/28 04:37:34;;;;;;;0.50;0.50;;;10.20;99.90;;;;;;5067523;28;20043;-81
2022/08/28 04:40:00;;;;;;;0.50;0.50;;;10.10;99.90;;;;;;5049320;28;20048;-80
2022/08/28 04:42:26;;;;;;;0.50;0.50;;;10.10;99.90;;;;;;5083017;28;20066;-81
2022/08/28 04:44:58;;;;;;;0.50;0.50;;;10.10;99.90;;;;;;5063569;28;20917;-81
2022/08/28 04:47:26;;;;;;;0.50;0.50;;;10.00;99.90;;;;;;5081289;28;21044;-81
2022/08/28 04:49:52;;;;;;;0.50;0.50;;;10.00;99.90;;;;;;5062195;28;20055;-80
2022/08/28 04:52:18;;;;;;;0.50;0.50;;;10.10;99.90;;;;;;5064139;28;23238;-80
2022/08/28 04:54:44;;;;;;;0.45;0.45;;;10.00;99.90;;;;;;5082078;28;20111;-80
2022/08/28 04:57:10;;;;;;;0.50;0.50;;;10.10;99.90;;;;;;5083075;28;20039;-80
2022/08/28 04:59:35;;;;;;;0.40;0.40;;;10.10;99.90;;;;;;5061422;28;20539;-80
2022/08/28 05:02:02;;;;;;;0.50;0.50;;;10.10;99.90;;;;;;5082909;28;20036;-80
2022/08/28 05:04:28;;;;;;;0.50;0.50;;;10.20;99.90;;;;;;5081729;28;20445;-80
2022/08/28 05:06:54;;;;;;;0.50;0.50;;;10.20;99.90;;;;;;5080993;28;20044;-80
2022/08/28 05:09:20;;;;;;;0.40;0.40;;;10.20;99.90;;;;;;5052102;28;20048;-80
2022/08/28 05:11:47;;;;;;;0.50;0.50;;;10.30;99.90;;;;;;5050617;28;20043;-81
2022/08/28 05:14:14;;;;;;;0.50;0.50;;;10.30;99.90;;;;;;5064844;28;20120;-80
2022/08/28 05:16:42;;;;;;;0.50;0.50;;;10.30;99.90;;;;;;5063906;28;20595;-81
2022/08/28 05:19:08;;;;;;;0.50;0.50;;;10.30;99.90;;;;;;5063301;28;20558;-81
2022/08/28 05:21:34;;;;;;;0.50;0.50;;;10.50;99.90;;;;;;5062243;28;20630;-81
2022/08/28 05:24:00;;;;;;;0.57;0.57;;;11.80;99.90;;;;;;5066706;28;20055;-81
2022/08/28 05:26:27;;;;;;;0.50;0.50;;;12.80;99.90;;;;;;5062787;28;20051;-80
2022/08/28 05:28:54;;;;;;;0.50;0.50;;;13.50;99.90;;;;;;5063205;28;20069;-80
2022/08/28 05:31:21;;;;;;;0.50;0.50;;;14.00;99.90;;;;;;5078514;28;21258;-80
2022/08/28 05:33:48;;;;;;;0.40;0.40;;;14.90;99.90;;;;;;5045241;28;20043;-81
2022/08/28 05:36:16;;;;;;;0.50;0.50;;;15.70;99.90;;;;;;5044135;28;20080;-81
2022/08/28 05:38:43;;;;;;;0.50;0.50;;;16.30;99.90;;;;;;5061515;28;20129;-81
2022/08/28 05:41:09;;;;;;;0.40;0.40;;;16.80;99.90;;;;;;5044661;28;20102;-81
2022/08/28 05:43:35;;;;;;;0.50;0.50;;;17.00;99.90;;;;;;5026305;28;20556;-80
2022/08/28 05:46:08;;;;;;;0.40;0.40;;;17.40;99.90;;;;;;5042641;28;20056;-80
2022/08/28 05:48:35;;;;;;;0.40;0.40;;;17.80;99.90;;;;;;5044464;28;20080;-80
2022/08/28 05:51:09;;;;;;;0.40;0.40;;;18.10;99.90;;;;;;5060575;28;20036;-80
2022/08/28 05:53:40;;;;;;;0.40;0.40;;;17.40;99.90;;;;;;5061101;28;20054;-80
2022/08/28 05:56:07;;;;;;;0.43;0.43;;;16.70;99.90;;;;;;5043558;28;20051;-80
2022/08/28 05:58:34;;;;;;;0.40;0.40;;;16.10;99.90;;;;;;5028375;28;20044;-80
2022/08/28 06:01:11;;;;;;;0.50;0.50;;;15.70;99.90;;;;;;5041261;28;20565;-80
2022/08/28 06:03:39;;;;;;;0.40;0.40;;;15.90;99.90;;;;;;5042536;28;20123;-80
2022/08/28 06:06:06;;;;;;;0.40;0.40;;;15.80;99.90;;;;;;5059971;28;20075;-80
2022/08/28 06:08:32;;;;;;;0.40;0.40;;;15.50;99.90;;;;;;5052716;28;20051;-79
2022/08/28 06:11:01;;;;;;;0.50;0.50;;;15.20;99.90;;;;;;5042453;28;20076;-80
2022/08/28 06:13:27;;;;;;;0.40;0.40;;;15.30;99.90;;;;;;5037768;28;20127;-80
2022/08/28 06:15:53;;;;;;;0.40;0.40;;;15.50;99.90;;;;;;5040438;28;20101;-80
2022/08/28 06:18:19;;;;;;;0.50;0.50;;;15.60;99.90;;;;;;5060472;28;20060;-80
2022/08/28 06:20:45;;;;;;;0.40;0.40;;;15.80;99.90;;;;;;5041143;28;20735;-81
2022/08/28 06:23:17;;;;;;;0.40;0.40;;;15.60;99.90;;;;;;5041554;28;20117;-80
2022/08/28 06:25:45;;;;;;;0.40;0.40;;;15.80;99.90;;;;;;5058150;28;20381;-80
2022/08/28 06:28:13;;;;;;;0.50;0.50;;;15.70;99.90;;;;;;5042404;28;20066;-80
2022/08/28 06:30:40;;;;;;;0.43;0.43;;;15.70;99.90;;;;;;5025968;28;20052;-80
2022/08/28 06:33:07;;;;;;;0.40;0.40;;;15.80;99.90;;;;;;5074336;28;20142;-80
2022/08/28 06:35:33;;;;;;;0.40;0.40;;;16.00;99.90;;;;;;5075754;28;20075;-80
2022/08/28 06:38:00;;;;;;;0.40;0.40;;;16.20;99.90;;;;;;5081218;28;20504;-80
2022/08/28 06:40:26;;;;;;;0.40;0.40;;;16.40;99.90;;;;;;5072184;28;20133;-80
2022/08/28 06:42:52;;;;;;;0.40;0.40;;;16.50;99.90;;;;;;5079447;28;20980;-80
2022/08/28 06:45:18;;;;;;;0.40;0.40;;;16.70;99.90;;;;;;5078873;28;20039;-80
2022/08/28 06:47:45;;;;;;;0.40;0.40;;;16.80;99.90;;;;;;5080418;28;20400;-80
2022/08/28 06:50:11;;;;;;;0.40;0.40;;;17.00;99.90;;;;;;5081330;28;20054;-83
2022/08/28 06:52:37;;;;;;;0.40;0.40;;;17.00;99.90;;;;;;5077570;28;20051;-80
2022/08/28 06:55:03;;;;;;;0.40;0.40;;;17.10;99.90;;;;;;5079031;28;20085;-78
2022/08/28 06:57:30;;;;;;;0.40;0.40;;;17.10;99.90;;;;;;5076882;28;20040;-80
2022/08/28 06:59:57;;;;;;;0.40;0.40;;;17.20;99.90;;;;;;5077869;28;20735;-79
2022/08/28 07:02:23;;;;;;;0.50;0.50;;;17.40;99.90;;;;;;5076020;28;20360;-80
2022/08/28 07:04:52;;;;;;;0.40;0.40;;;17.50;99.90;;;;;;5078718;28;20043;-79
2022/08/28 07:07:19;;;;;;;0.40;0.40;;;17.40;99.90;;;;;;5075029;28;20105;-80
2022/08/28 07:09:45;;;;;;;0.40;0.40;;;17.50;99.90;;;;;;5078595;28;20056;-80
2022/08/28 07:12:15;;;;;;;0.40;0.40;;;17.80;99.90;;;;;;5078879;28;21041;-80
2022/08/28 07:14:42;;;;;;;0.40;0.40;;;18.00;99.90;;;;;;5079968;28;20060;-79
2022/08/28 07:17:08;;;;;;;0.40;0.40;;;18.00;99.90;;;;;;5080754;28;20464;-80
2022/08/28 07:19:34;;;;;;;0.50;0.50;;;18.20;99.90;;;;;;5085448;28;20142;-81
2022/08/28 07:22:00;;;;;;;1.10;1.00;;;18.30;99.90;;;;;;5087373;28;20084;-81
2022/08/28 07:24:28;;;;;;;0.40;0.40;;;18.30;99.90;;;;;;5084684;28;20558;-81
2022/08/28 07:26:54;;;;;;;0.40;0.40;;;18.50;99.90;;;;;;5084660;28;20098;-81
2022/08/28 07:29:20;;;;;;;0.40;0.40;;;18.60;99.90;;;;;;5084217;28;20055;-80
2022/08/28 07:31:50;;;;;;;0.40;0.40;;;18.80;99.90;;;;;;5086830;28;20055;-81
2022/08/28 07:34:18;;;;;;;0.32;0.32;;;18.80;99.90;;;;;;5082930;28;20492;-81
2022/08/28 07:36:45;;;;;;;0.32;0.32;;;18.90;99.90;;;;;;5054560;28;20748;-80
2022/08/28 07:39:13;;;;;;;0.40;0.40;;;19.00;99.90;;;;;;5082026;28;20046;-80
2022/08/28 07:41:41;;;;;;;0.30;0.30;;;19.10;99.90;;;;;;5082963;28;20287;-80
2022/08/28 07:46:55;;;;;;;0.30;0.30;;;19.10;99.90;;;;;;5071885;27;20158;-80
2022/08/28 07:49:22;;;;;;;0.40;0.40;;;19.20;99.90;;;;;;5068823;27;20039;-80
2022/08/28 07:51:48;;;;;;;0.30;0.30;;;19.20;99.90;;;;;;5084734;27;20075;-80
2022/08/28 07:54:15;;;;;;;0.40;0.40;;;19.30;99.90;;;;;;5086728;27;20108;-80
2022/08/28 07:56:40;;;;;;;0.40;0.40;;;19.50;99.90;;;;;;5087408;27;20069;-80
2022/08/28 07:59:08;;;;;;;0.30;0.30;;;19.60;99.90;;;;;;5063282;27;20940;-81
2022/08/28 08:01:40;;;;;;;0.50;0.50;;;19.30;99.90;;;;;;5069638;27;20051;-80
2022/08/28 08:04:14;;;;;;;0.38;0.38;;;19.50;99.90;;;;;;5065674;27;20059;-80
2022/08/28 08:06:41;;;;;;;0.30;0.30;;;19.50;99.90;;;;;;5027233;27;20772;-80
2022/08/28 08:09:09;;;;;;;0.40;0.40;;;19.60;99.90;;;;;;5059795;27;20047;-80
2022/08/28 08:11:35;;;;;;;0.40;0.40;;;19.80;99.90;;;;;;5070828;27;20054;-80
2022/08/28 08:14:03;;;;;;;0.30;0.30;;;19.80;99.90;;;;;;5074920;27;20047;-80
2022/08/28 08:16:29;;;;;;;0.40;0.40;;;20.00;99.90;;;;;;5079049;27;20095;-80
2022/08/28 08:18:56;;;;;;;0.30;0.30;;;20.30;99.90;;;;;;5034458;27;20108;-79
2022/08/28 08:21:22;;;;;;;0.30;0.30;;;20.20;99.90;;;;;;5056827;27;20070;-80
2022/08/28 08:23:48;;;;;;;0.30;0.30;;;20.40;99.90;;;;;;5056855;27;20309;-80
2022/08/28 08:26:17;;;;;;;0.30;0.30;;;20.20;99.90;;;;;;5055520;27;20158;-79
2022/08/28 08:28:44;;;;;;;0.30;0.30;;;20.40;99.90;;;;;;5044046;27;20104;-78
2022/08/28 08:31:11;;;;;;;0.30;0.30;;;20.70;99.90;;;;;;5062195;27;20523;-79
2022/08/28 08:33:41;;;;;;;0.30;0.30;;;20.40;99.90;;;;;;5047348;27;20782;-80
2022/08/28 08:36:08;;;;;;;0.30;0.30;;;20.70;99.90;;;;;;5049545;27;20254;-81
2022/08/28 08:38:35;;;;;;;0.30;0.30;;;21.00;99.90;;;;;;5050271;27;20047;-80
2022/08/28 08:41:05;;;;;;;0.30;0.30;;;20.80;99.90;;;;;;5052009;27;20123;-80
2022/08/28 08:43:50;;;;;;;0.30;0.30;;;20.90;99.90;;;;;;5045537;27;20058;-82
2022/08/28 08:46:18;;;;;;;0.30;0.30;;;21.00;99.90;;;;;;5040595;27;21082;-81
2022/08/28 08:48:45;;;;;;;0.30;0.30;;;21.30;99.90;;;;;;5026903;27;20055;-81
2022/08/28 08:51:30;;;;;;;0.30;0.30;;;21.40;99.90;;;;;;5046931;27;20047;-80
2022/08/28 08:54:08;;;;;;;0.30;0.30;;;21.70;99.90;;;;;;5054613;27;20150;-81
2022/08/28 08:56:34;;;;;;;0.30;0.30;;;21.20;99.90;;;;;;5050234;27;20095;-80
2022/08/28 08:59:04;;;;;;;0.30;0.30;;;21.30;99.90;;;;;;5051340;27;20042;-80
2022/08/28 09:01:40;;;;;;;0.30;0.30;;;21.40;99.90;;;;;;5054903;27;20070;-79
2022/08/28 09:04:46;;;;;;;0.30;0.30;;;21.70;99.90;;;;;;5051638;27;20684;-80
2022/08/28 09:07:28;;;;;;;0.30;0.30;;;21.40;99.90;;;;;;5053135;27;20039;-81
2022/08/28 09:09:56;;;;;;;0.30;0.30;;;21.00;99.90;;;;;;5039606;27;20127;-80
2022/08/28 09:12:27;;;;;;;0.30;0.30;;;20.80;99.90;;;;;;5048193;27;20076;-81
2022/08/28 09:15:08;;;;;;;0.32;0.32;;;20.90;99.90;;;;;;5055573;27;20829;-79
2022/08/28 09:18:02;;;;;;;0.40;0.40;;;21.20;99.90;;;;;;5044062;27;20039;-81
2022/08/28 09:20:28;;;;;;;0.30;0.30;;;21.40;99.90;;;;;;5045255;27;20050;-79
2022/08/28 09:22:54;;;;;;;0.30;0.30;;;21.60;99.90;;;;;;5065571;27;20043;-80
2022/08/28 09:25:48;;;;;;;0.30;0.30;;;21.70;99.90;;;;;;5060361;27;20051;-80
2022/08/28 09:28:17;;;;;;;0.30;0.30;;;22.00;99.90;;;;;;5060785;27;20136;-80
2022/08/28 09:30:50;;;;;;;0.30;0.30;;;22.00;99.90;;;;;;5058094;27;20051;-80
2022/08/28 09:33:27;;;;;;;0.30;0.30;;;22.00;99.90;;;;;;5064242;27;20408;-79
2022/08/28 09:35:53;;;;;;;0.30;0.30;;;22.10;99.90;;;;;;5048888;27;20711;-79
2022/08/28 09:38:21;;;;;;;0.30;0.30;;;21.70;99.90;;;;;;5038533;27;20039;-80
2022/08/28 09:43:46;;;;;;;0.30;0.30;;;22.10;99.90;;;;;;4979950;27;21172;-79
2022/08/28 09:46:20;;;;;;;0.30;0.30;;;22.20;99.90;;;;;;5052740;27;20050;-80
2022/08/28 09:48:51;;;;;;;0.30;0.30;;;21.90;99.90;;;;;;5054022;27;20051;-81
2022/08/28 09:51:19;;;;;;;0.40;0.40;;;21.40;99.90;;;;;;5017292;27;20063;-81
2022/08/28 09:53:51;;;;;;;0.40;0.40;;;21.10;99.90;;;;;;5038414;27;20054;-80
2022/08/28 09:56:43;;;;;;;0.30;0.30;;;20.90;99.90;;;;;;5039268;27;20039;-82
2022/08/28 09:59:13;;;;;;;0.30;0.30;;;21.40;99.90;;;;;;5037462;27;20059;-80
2022/08/28 10:01:48;;;;;;;0.30;0.30;;;22.20;99.90;;;;;;5066338;27;20538;-79
2022/08/28 10:04:16;;;;;;;0.30;0.30;;;21.90;99.90;;;;;;5070416;27;20596;-81
2022/08/28 10:06:59;;;;;;;0.30;0.30;;;22.10;99.90;;;;;;5076417;27;20138;-80
2022/08/28 10:10:02;;;;;;;0.30;0.30;;;21.90;99.90;;;;;;5097055;27;20061;-80
2022/08/28 10:12:30;;;;;;;0.30;0.30;;;23.20;99.90;;;;;;5089044;27;20120;-80
2022/08/28 10:15:08;;;;;;;0.30;0.30;;;23.10;99.90;;;;;;5079639;27;20039;-80
2022/08/28 10:18:00;;;;;;;0.30;0.30;;;22.60;99.90;;;;;;5074413;27;20192;-80
2022/08/28 10:20:41;;;;;;;0.30;0.30;;;22.50;99.90;;;;;;5073882;27;20674;-81
2022/08/28 10:23:16;;;;;;;0.30;0.30;;;23.30;99.90;;;;;;5078388;27;20140;-81
2022/08/28 10:25:50;;;;;;;0.30;0.30;;;23.00;99.90;;;;;;5074020;27;20105;-81
2022/08/28 10:28:36;;;;;;;0.40;0.40;;;22.40;99.90;;;;;;5077558;27;20081;-81
2022/08/28 10:31:09;;;;;;;0.30;0.30;;;22.00;99.90;;;;;;5082035;27;20043;-79
2022/08/28 10:33:51;;;;;;;0.40;0.40;;;22.00;99.90;;;;;;5079525;27;20051;-81
2022/08/28 10:36:25;;;;;;;0.40;0.40;;;23.00;99.90;;;;;;5076363;27;20273;-80
2022/08/28 10:39:27;;;;;;;0.32;0.32;;;23.60;99.90;;;;;;5092797;27;20050;-81
2022/08/28 10:42:01;;;;;;;0.30;0.30;;;23.70;99.90;;;;;;5073236;27;20082;-81
2022/08/28 10:44:53;;;;;;;0.30;0.30;;;23.40;99.90;;;;;;5070312;27;20153;-81
2022/08/28 10:47:21;;;;;;;0.30;0.30;;;23.30;99.90;;;;;;5073500;27;20082;-80
2022/08/28 10:49:52;;;;;;;0.30;0.30;;;23.40;99.90;;;;;;5076654;27;20099;-81
2022/08/28 10:52:30;;;;;;;0.30;0.30;;;23.80;99.90;;;;;;5074641;28;20062;-81
2022/08/28 10:55:04;;;;;;;0.30;0.30;;;23.90;99.90;;;;;;5077758;27;20422;-79
2022/08/28 10:57:49;;;;;;;;;;;23.60;99.90;;;;;;5075141;28;20047;-77
2022/08/28 11:00:23;;;;;;;0.30;0.30;;;22.60;99.90;;;;;;5095318;27;19927;-81
2022/08/28 11:02:51;;;;;;;;;;;22.00;99.90;;;;;;5079403;27;20052;-81
2022/08/28 11:05:23;;;;;;;0.30;0.30;;;21.70;99.90;;;;;;5078970;27;20080;-84
2022/08/28 11:07:53;;;;;;;0.30;0.30;;;22.50;99.90;;;;;;5080021;28;22438;-80
2022/08/28 11:10:22;;;;;;;0.30;0.30;;;22.50;99.90;;;;;;5072073;28;20079;-80
2022/08/28 11:12:50;;;;;;;0.30;0.30;;;22.60;99.90;;;;;;5074667;28;20031;-79
2022/08/28 11:15:31;;;;;;;0.30;0.30;;;23.00;99.90;;;;;;5056917;28;20085;-81
2022/08/28 11:18:15;;;;;;;0.30;0.30;;;23.50;99.90;;;;;;5071520;28;20043;-79
2022/08/28 11:20:53;;;;;;;0.30;0.30;;;23.30;99.90;;;;;;5076194;28;20059;-79
2022/08/28 11:23:28;;;;;;;0.30;0.30;;;24.00;99.90;;;;;;5077039;28;20043;-81
2022/08/28 11:25:58;;;;;;;0.30;0.30;;;24.30;99.90;;;;;;5095549;28;20043;-79
2022/08/28 11:28:24;;;;;;;0.30;0.30;;;23.20;99.50;;;;;;5099564;28;20039;-81
2022/08/28 11:31:19;;;;;;;0.30;0.30;;;22.90;99.90;;;;;;5098207;28;20058;-80
2022/08/28 11:33:51;;;;;;;0.30;0.30;;;23.40;99.90;;;;;;5071250;28;20061;-79
2022/08/28 11:36:24;;;;;;;0.30;0.30;;;23.30;99.90;;;;;;5074459;28;20039;-77
2022/08/28 11:38:56;;;;;;;0.30;0.30;;;22.40;99.40;;;;;;5077165;28;20526;-79
2022/08/28 11:41:26;;;;;;;0.30;0.30;;;22.20;99.90;;;;;;5079909;28;20055;-80
2022/08/28 11:44:11;;;;;;;0.30;0.30;;;22.10;99.90;;;;;;5095032;28;20047;-79
2022/08/28 11:46:41;;;;;;;0.30;0.30;;;22.40;99.90;;;;;;5098485;28;20063;-80
2022/08/28 11:49:28;;;;;;;0.40;0.40;;;22.70;99.90;;;;;;5102079;27;20039;-80
2022/08/28 11:52:35;;;;;;;0.30;0.30;;;23.30;99.90;;;;;;5080158;28;20047;-82
2022/08/28 11:55:16;;;;;;;0.30;0.30;;;23.70;99.90;;;;;;5102178;28;20803;-80
2022/08/28 11:58:04;;;;;;;0.30;0.30;;;24.40;98.90;;;;;;5073250;28;20050;-80
2022/08/28 12:01:09;;;;;;;0.30;0.30;;;24.90;99.80;;;;;;5096951;28;20075;-79
2022/08/28 12:04:02;;;;;;;0.30;0.30;;;24.50;99.80;;;;;;5084896;27;20142;-81
2022/08/28 12:06:46;;;;;;;0.30;0.30;;;24.30;99.90;;;;;;5101553;27;20043;-80
2022/08/28 12:09:46;;;;;;;0.30;0.30;;;24.20;99.50;;;;;;5098631;27;20051;-78
2022/08/28 12:12:20;;;;;;;0.30;0.30;;;23.40;98.70;;;;;;5096016;27;20466;-78
2022/08/28 12:14:46;;;;;;;0.30;0.30;;;23.30;98.70;;;;;;5062061;27;20288;-78
2022/08/28 12:17:16;;;;;;;0.30;0.30;;;22.60;99.50;;;;;;5101616;27;20958;-80
2022/08/28 12:19:49;;;;;;;0.30;0.30;;;22.20;99.90;;;;;;5085004;27;20055;-80
2022/08/28 12:22:18;;;;;;;0.30;0.30;;;22.30;99.90;;;;;;5105850;27;20047;-81
2022/08/28 12:24:49;;;;;;;0.30;0.30;;;22.50;99.90;;;;;;5084529;27;20162;-81
2022/08/28 12:27:15;;;;;;;0.30;0.30;;;22.20;99.90;;;;;;5105980;27;20508;-82
2022/08/28 12:29:48;;;;;;;0.30;0.30;;;22.20;99.90;;;;;;5102166;27;20054;-81
2022/08/28 12:32:32;;;;;;;0.30;0.30;;;22.90;99.90;;;;;;5092843;27;20667;-80
2022/08/28 12:34:58;;;;;;;0.30;0.30;;;23.40;99.90;;;;;;5097672;27;20058;-78
2022/08/28 12:37:42;;;;;;;0.30;0.30;;;23.50;99.20;;;;;;5103498;27;20039;-78
2022/08/28 12:40:15;;;;;;;0.30;0.30;;;23.20;99.80;;;;;;5081756;27;20055;-77
2022/08/28 12:43:01;;;;;;;0.30;0.30;;;22.60;98.50;;;;;;5103432;27;20055;-79
2022/08/28 12:45:35;;;;;;;0.30;0.30;;;22.70;99.90;;;;;;5100809;27;20514;-80
2022/08/28 12:48:27;;;;;;;0.30;0.30;;;22.70;99.90;;;;;;5084917;27;20054;-80
2022/08/28 12:50:59;;;;;;;0.30;0.30;;;23.00;99.90;;;;;;5034977;27;20066;-81
2022/08/28 12:53:25;;;;;;;0.30;0.30;;;22.60;99.90;;;;;;5101391;27;20104;-78
2022/08/28 12:55:51;;;;;;;0.38;0.38;;;22.80;99.90;;;;;;5080562;27;20061;-81
2022/08/28 12:58:32;;;;;;;0.30;0.30;;;22.40;99.90;;;;;;5102106;27;20043;-82
2022/08/28 13:01:09;;;;;;;0.30;0.30;;;22.10;99.90;;;;;;5082680;27;20404;-79
2022/08/28 13:03:48;;;;;;;0.30;0.30;;;22.40;99.90;;;;;;5079210;27;20050;-80
2022/08/28 13:06:29;;;;;;;0.30;0.30;;;22.80;99.90;;;;;;5095516;27;20047;-81
2022/08/28 13:09:16;;;;;;;0.30;0.30;;;23.40;99.90;;;;;;5088453;27;20052;-81
2022/08/28 13:11:48;;;;;;;0.30;0.30;;;24.00;99.90;;;;;;5097326;27;20051;-82
2022/08/28 13:14:54;;;;;;;0.30;0.30;;;24.10;99.10;;;;;;5099479;27;20047;-80
2022/08/28 13:17:43;;;;;;;0.30;0.30;;;24.90;99.90;;;;;;5023463;28;20686;-80